Time;durP1;ratioP1;P1;durP2;ratioP2;P2;SDS_P1;SDS_P2;PMS_P1;PMS_P2;Temp;Humidity;BMP_temperature;BMP_pressure;BME280_temperature;BME280_humidity;BME280_pressure;Samples;Min_cycle;Max_cycle;Signal;HPM_P1;HPM_P2
2023/09/20 00:00:07;;;;;;;22.83;14.93;;;;;;;;;;10489798;28;20032;-83
2023/09/20 00:05:15;;;;;;;20.35;12.85;;;;;;;;;;10488777;28;20143;-87
2023/09/20 00:10:18;;;;;;;20.27;13.68;;;;;;;;;;10476046;28;20520;-83
2023/09/20 00:15:19;;;;;;;22.33;16.33;;;;;;;;;;10488362;28;20042;-83
2023/09/20 00:20:20;;;;;;;23.23;16.38;;;;;;;;;;10488399;28;20573;-84
2023/09/20 00:25:21;;;;;;;25.63;17.30;;;;;;;;;;10469212;28;20124;-85
2023/09/20 00:30:22;;;;;;;25.00;17.13;;;;;;;;;;10488287;28;20037;-83
2023/09/20 00:35:23;;;;;;;25.65;18.08;;;;;;;;;;10469342;28;20025;-82
2023/09/20 00:40:26;;;;;;;24.88;17.23;;;;;;;;;;10469482;28;20032;-83
2023/09/20 00:45:29;;;;;;;26.73;18.60;;;;;;;;;;10486986;28;20343;-83
2023/09/20 00:50:31;;;;;;;25.40;17.63;;;;;;;;;;10468957;28;20039;-83
2023/09/20 00:55:33;;;;;;;25.95;19.02;;;;;;;;;;10469131;28;20028;-84
2023/09/20 01:00:37;;;;;;;21.67;15.43;;;;;;;;;;10486480;28;20111;-84
2023/09/20 01:05:39;;;;;;;23.70;17.20;;;;;;;;;;10487828;28;20047;-85
2023/09/20 01:10:40;;;;;;;27.20;18.42;;;;;;;;;;10485600;28;20025;-83
2023/09/20 01:15:43;;;;;;;24.92;15.95;;;;;;;;;;10468147;28;20075;-83
2023/09/20 01:20:44;;;;;;;24.52;16.85;;;;;;;;;;10480505;28;20558;-83
2023/09/20 01:25:46;;;;;;;18.20;10.98;;;;;;;;;;10467858;28;20041;-83
2023/09/20 01:30:50;;;;;;;28.13;16.02;;;;;;;;;;10485288;28;20071;-86
2023/09/20 01:35:51;;;;;;;19.38;13.98;;;;;;;;;;10467250;28;20075;-84
2023/09/20 01:40:56;;;;;;;19.13;12.43;;;;;;;;;;10467128;28;20040;-85
2023/09/20 01:45:57;;;;;;;22.83;15.00;;;;;;;;;;10483292;28;20536;-83
2023/09/20 01:50:58;;;;;;;22.52;14.18;;;;;;;;;;10485333;28;20020;-84
2023/09/20 01:56:00;;;;;;;19.15;12.30;;;;;;;;;;10484772;28;20012;-84
2023/09/20 02:01:01;;;;;;;22.05;12.32;;;;;;;;;;10484138;28;20060;-84
2023/09/20 02:06:02;;;;;;;20.55;12.48;;;;;;;;;;10467000;28;20045;-84
2023/09/20 02:11:03;;;;;;;62.30;18.63;;;;;;;;;;10483783;28;20032;-84
2023/09/20 02:16:04;;;;;;;76.78;23.33;;;;;;;;;;10483636;28;20141;-83
2023/09/20 02:21:06;;;;;;;14.02;10.15;;;;;;;;;;10484439;28;20120;-85
2023/09/20 02:26:09;;;;;;;28.25;13.13;;;;;;;;;;10465066;28;20043;-84
2023/09/20 02:31:11;;;;;;;20.02;11.73;;;;;;;;;;10470432;28;20060;-86
2023/09/20 02:36:12;;;;;;;10.23;7.97;;;;;;;;;;10492141;28;20032;-85
2023/09/20 02:41:13;;;;;;;25.42;15.32;;;;;;;;;;10473868;28;20052;-84
2023/09/20 02:46:14;;;;;;;21.08;14.90;;;;;;;;;;10491471;28;20044;-84
2023/09/20 02:51:16;;;;;;;18.02;12.48;;;;;;;;;;10474428;28;20405;-84
2023/09/20 02:56:18;;;;;;;16.73;11.02;;;;;;;;;;10492345;28;20074;-85
2023/09/20 03:01:20;;;;;;;20.48;13.98;;;;;;;;;;10473688;28;20052;-84
2023/09/20 03:06:21;;;;;;;12.48;8.93;;;;;;;;;;10489680;28;20403;-84
2023/09/20 03:11:25;;;;;;;18.08;10.85;;;;;;;;;;10471750;28;20038;-85
2023/09/20 03:16:27;;;;;;;17.83;13.68;;;;;;;;;;10469379;28;20120;-80
2023/09/20 03:21:28;;;;;;;19.88;14.05;;;;;;;;;;10472582;28;20036;-86
2023/09/20 03:26:31;;;;;;;22.30;14.35;;;;;;;;;;10489877;28;20499;-80
2023/09/20 03:31:32;;;;;;;19.77;12.65;;;;;;;;;;10490671;28;20028;-80
2023/09/20 03:36:34;;;;;;;16.65;11.57;;;;;;;;;;10472835;28;20821;-83
2023/09/20 03:41:35;;;;;;;15.32;10.90;;;;;;;;;;10489549;28;20028;-84
2023/09/20 03:46:36;;;;;;;9.48;7.60;;;;;;;;;;10470641;28;20044;-80
2023/09/20 03:51:37;;;;;;;15.95;10.63;;;;;;;;;;10489315;28;20031;-83
2023/09/20 03:56:41;;;;;;;11.48;8.30;;;;;;;;;;10488811;28;20400;-81
2023/09/20 04:01:42;;;;;;;12.00;9.38;;;;;;;;;;10487815;28;20057;-83
2023/09/20 04:06:47;;;;;;;12.40;9.95;;;;;;;;;;10486182;28;20166;-80
2023/09/20 04:11:48;;;;;;;13.60;9.30;;;;;;;;;;10485875;28;20218;-82
2023/09/20 04:17:08;;;;;;;14.68;10.35;;;;;;;;;;10485486;28;20510;-81
2023/09/20 04:22:10;;;;;;;7.72;6.13;;;;;;;;;;10485131;28;20024;-82
2023/09/20 04:27:11;;;;;;;28.38;14.15;;;;;;;;;;10480977;28;20488;-83
2023/09/20 04:32:12;;;;;;;18.83;12.65;;;;;;;;;;10466551;28;20044;-81
2023/09/20 04:37:13;;;;;;;14.27;10.80;;;;;;;;;;10486399;28;20522;-84
2023/09/20 04:42:14;;;;;;;24.48;11.50;;;;;;;;;;10485240;28;20024;-81
2023/09/20 04:47:16;;;;;;;27.63;14.25;;;;;;;;;;10472509;28;20032;-84
2023/09/20 04:52:17;;;;;;;19.83;11.60;;;;;;;;;;10477552;28;20031;-84
2023/09/20 04:57:19;;;;;;;29.83;15.68;;;;;;;;;;10472065;28;20128;-81
2023/09/20 05:02:22;;;;;;;23.83;15.60;;;;;;;;;;10445428;28;1133186;-83
2023/09/20 05:07:23;;;;;;;21.98;14.40;;;;;;;;;;10486457;28;20067;-82
2023/09/20 05:12:24;;;;;;;37.38;18.20;;;;;;;;;;10486291;28;20028;-85
2023/09/20 05:17:27;;;;;;;35.53;19.38;;;;;;;;;;10485469;28;20468;-83
2023/09/20 05:22:30;;;;;;;25.92;16.48;;;;;;;;;;10485601;28;20324;-82
2023/09/20 05:27:31;;;;;;;23.40;15.48;;;;;;;;;;10470238;28;20028;-83
2023/09/20 05:32:32;;;;;;;20.90;14.55;;;;;;;;;;10485873;28;20464;-83
2023/09/20 05:37:33;;;;;;;42.63;19.95;;;;;;;;;;10485434;28;20051;-83
2023/09/20 05:42:34;;;;;;;20.38;14.52;;;;;;;;;;10484818;28;20029;-84
2023/09/20 05:47:35;;;;;;;23.48;14.00;;;;;;;;;;10483583;28;20403;-83
2023/09/20 05:52:37;;;;;;;28.42;16.55;;;;;;;;;;10475194;28;20021;-86
2023/09/20 05:57:38;;;;;;;28.85;15.45;;;;;;;;;;10461783;28;20036;-82
2023/09/20 06:02:41;;;;;;;25.85;16.48;;;;;;;;;;10485056;28;20096;-86
2023/09/20 06:07:44;;;;;;;26.38;17.75;;;;;;;;;;10485057;28;20037;-82
2023/09/20 06:12:45;;;;;;;21.50;14.32;;;;;;;;;;10484612;28;20032;-82
2023/09/20 06:17:47;;;;;;;22.10;14.63;;;;;;;;;;10484876;28;20535;-85
2023/09/20 06:22:49;;;;;;;22.17;14.07;;;;;;;;;;10484890;28;20067;-82
2023/09/20 06:27:51;;;;;;;26.02;15.65;;;;;;;;;;10471002;28;20082;-83
2023/09/20 06:32:52;;;;;;;32.42;16.45;;;;;;;;;;10466160;28;20044;-84
2023/09/20 06:37:53;;;;;;;23.30;13.68;;;;;;;;;;10485055;28;20024;-85
2023/09/20 06:42:54;;;;;;;22.92;12.82;;;;;;;;;;10484537;28;20051;-84
2023/09/20 06:47:55;;;;;;;18.63;12.30;;;;;;;;;;10484201;28;20037;-84
2023/09/20 06:52:56;;;;;;;21.63;11.05;;;;;;;;;;10466519;28;20024;-82
2023/09/20 06:57:58;;;;;;;15.50;9.13;;;;;;;;;;10466287;28;20047;-82
2023/09/20 07:02:59;;;;;;;14.75;9.13;;;;;;;;;;10483747;28;20502;-82
2023/09/20 07:08:00;;;;;;;18.13;10.20;;;;;;;;;;10466147;28;20035;-82
2023/09/20 07:13:05;;;;;;;13.27;7.60;;;;;;;;;;10483619;28;20028;-83
2023/09/20 07:18:12;;;;;;;10.43;6.38;;;;;;;;;;10489383;28;20464;-83
2023/09/20 07:23:15;;;;;;;14.32;6.20;;;;;;;;;;10491145;28;20043;-82
2023/09/20 07:28:19;;;;;;;13.73;7.28;;;;;;;;;;10472131;28;20582;-82
2023/09/20 07:33:23;;;;;;;11.50;6.10;;;;;;;;;;10472644;28;20442;-82
2023/09/20 07:38:29;;;;;;;14.90;6.05;;;;;;;;;;10490995;28;20116;-82
2023/09/20 07:43:30;;;;;;;12.30;6.00;;;;;;;;;;10472416;28;20127;-83
2023/09/20 07:48:33;;;;;;;14.05;7.15;;;;;;;;;;10489694;28;20086;-82
2023/09/20 07:53:34;;;;;;;12.43;6.63;;;;;;;;;;10471956;28;20090;-82
2023/09/20 07:58:40;;;;;;;12.00;6.35;;;;;;;;;;10482805;28;20082;-83
2023/09/20 08:03:50;;;;;;;11.68;5.68;;;;;;;;;;10482213;28;20068;-82
2023/09/20 08:08:51;;;;;;;8.25;4.75;;;;;;;;;;10489709;28;20024;-83
2023/09/20 08:13:54;;;;;;;11.55;4.85;;;;;;;;;;10488908;28;20033;-84
2023/09/20 09:01:45;;;;;;;5.55;2.55;;;;;;;;;;10473605;28;20060;-82
2023/09/20 09:06:46;;;;;;;6.38;2.50;;;;;;;;;;10487293;28;20028;-82
2023/09/20 09:11:47;;;;;;;6.75;2.42;;;;;;;;;;10487440;28;20040;-81
2023/09/20 09:16:48;;;;;;;3.47;1.67;;;;;;;;;;10487871;28;20028;-80
2023/09/20 09:21:49;;;;;;;3.40;1.92;;;;;;;;;;10486449;28;20063;-86
2023/09/20 09:27:03;;;;;;;4.47;2.33;;;;;;;;;;10486183;28;20063;-85
2023/09/20 09:32:04;;;;;;;4.32;2.10;;;;;;;;;;10486660;28;20320;-83
2023/09/20 09:37:05;;;;;;;4.20;2.00;;;;;;;;;;10485958;28;20056;-83
2023/09/20 09:42:07;;;;;;;5.28;1.88;;;;;;;;;;10486284;28;20039;-84
2023/09/20 09:47:08;;;;;;;3.78;1.83;;;;;;;;;;10483610;28;20037;-81
2023/09/20 09:52:10;;;;;;;4.53;1.98;;;;;;;;;;10483825;28;20028;-82
2023/09/20 09:57:11;;;;;;;4.70;2.33;;;;;;;;;;10473095;28;20040;-83
2023/09/20 10:02:19;;;;;;;4.82;2.03;;;;;;;;;;10483871;28;20056;-82
2023/09/20 10:07:22;;;;;;;3.78;2.08;;;;;;;;;;10481979;28;20028;-81
2023/09/20 10:12:23;;;;;;;4.43;2.50;;;;;;;;;;10484391;28;20667;-81
2023/09/20 10:17:30;;;;;;;3.20;1.48;;;;;;;;;;10462012;28;20033;-81
2023/09/20 10:22:34;;;;;;;3.60;1.63;;;;;;;;;;10484400;28;20028;-85
2023/09/20 10:27:35;;;;;;;2.07;1.50;;;;;;;;;;10483641;28;20028;-80
2023/09/20 10:32:48;;;;;;;3.03;1.50;;;;;;;;;;10469046;28;20040;-83
2023/09/20 10:38:08;;;;;;;4.60;1.70;;;;;;;;;;10465044;28;20036;-81
2023/09/20 10:43:09;;;;;;;7.03;1.80;;;;;;;;;;10472276;28;20036;-82
2023/09/20 10:48:13;;;;;;;3.75;1.73;;;;;;;;;;10478141;28;20043;-83
2023/09/20 10:53:14;;;;;;;2.83;1.60;;;;;;;;;;10489413;28;20430;-85
2023/09/20 10:58:18;;;;;;;3.28;1.33;;;;;;;;;;10486469;28;20502;-82
2023/09/20 11:03:19;;;;;;;2.17;1.27;;;;;;;;;;10491614;28;20048;-88
2023/09/20 11:08:21;;;;;;;4.82;1.30;;;;;;;;;;10473193;28;20025;-83
2023/09/20 11:13:22;;;;;;;2.78;1.63;;;;;;;;;;10491381;28;20528;-84
2023/09/20 11:18:23;;;;;;;3.97;1.75;;;;;;;;;;10490391;28;20028;-85
2023/09/20 11:23:25;;;;;;;3.97;1.40;;;;;;;;;;10489510;28;20040;-82
2023/09/20 11:28:27;;;;;;;3.00;1.67;;;;;;;;;;10491800;28;20086;-84
2023/09/20 11:33:29;;;;;;;2.72;1.27;;;;;;;;;;10490357;28;20324;-82
2023/09/20 11:38:30;;;;;;;1.83;1.05;;;;;;;;;;10490896;28;20020;-84
2023/09/20 11:43:31;;;;;;;2.13;1.35;;;;;;;;;;10488846;28;20170;-83
2023/09/20 11:48:32;;;;;;;1.73;1.52;;;;;;;;;;10473805;28;20105;-86
2023/09/20 11:53:33;;;;;;;4.25;1.63;;;;;;;;;;10481521;28;20040;-82
2023/09/20 11:58:36;;;;;;;2.75;1.55;;;;;;;;;;10479603;28;20390;-82
2023/09/20 12:03:37;;;;;;;2.25;1.63;;;;;;;;;;10465674;28;20052;-83
2023/09/20 12:08:38;;;;;;;7.90;2.38;;;;;;;;;;10489558;28;20135;-82
2023/09/20 12:13:39;;;;;;;2.70;1.60;;;;;;;;;;10488583;28;20500;-84
2023/09/20 12:18:42;;;;;;;3.33;2.00;;;;;;;;;;10488145;28;20032;-80
2023/09/20 12:23:43;;;;;;;2.38;1.10;;;;;;;;;;10487089;28;20122;-86
2023/09/20 12:28:47;;;;;;;5.05;1.52;;;;;;;;;;10469727;28;20106;-85
2023/09/20 12:33:48;;;;;;;4.10;1.20;;;;;;;;;;10480490;28;20071;-84
2023/09/20 12:38:49;;;;;;;1.52;1.20;;;;;;;;;;10488290;28;20119;-84
2023/09/20 12:43:50;;;;;;;1.83;1.30;;;;;;;;;;10464464;28;20054;-84
2023/09/20 12:48:51;;;;;;;1.15;0.82;;;;;;;;;;10486961;28;20028;-86
2023/09/20 12:53:52;;;;;;;2.90;1.10;;;;;;;;;;10468257;28;20036;-84
2023/09/20 12:58:53;;;;;;;2.33;1.20;;;;;;;;;;10457050;28;20143;-87
2023/09/20 13:03:54;;;;;;;1.92;1.10;;;;;;;;;;10468573;28;20049;-84
2023/09/20 13:08:56;;;;;;;2.42;1.10;;;;;;;;;;10477606;28;20055;-87
2023/09/20 13:13:57;;;;;;;2.92;1.35;;;;;;;;;;10460557;28;20068;-84
2023/09/20 13:18:58;;;;;;;3.15;1.40;;;;;;;;;;10481719;28;20025;-84
2023/09/20 13:23:59;;;;;;;2.03;1.48;;;;;;;;;;10475170;28;20492;-88
2023/09/20 13:29:01;;;;;;;2.03;1.10;;;;;;;;;;10478141;28;21668;-86
2023/09/20 13:34:03;;;;;;;1.20;1.00;;;;;;;;;;10477833;28;20029;-85
2023/09/20 13:39:04;;;;;;;1.85;1.00;;;;;;;;;;10465988;28;20120;-85
2023/09/20 13:44:05;;;;;;;1.83;1.17;;;;;;;;;;10460911;28;20040;-84
2023/09/20 13:49:06;;;;;;;1.55;1.20;;;;;;;;;;10466572;28;20036;-84
2023/09/20 13:54:09;;;;;;;2.25;1.23;;;;;;;;;;10478947;28;20370;-84
2023/09/20 13:59:10;;;;;;;3.28;1.63;;;;;;;;;;10459558;28;20468;-84
2023/09/20 14:04:11;;;;;;;3.70;1.38;;;;;;;;;;10479682;28;20053;-84
2023/09/20 14:09:13;;;;;;;3.78;1.38;;;;;;;;;;10466476;28;20024;-85
2023/09/20 14:14:14;;;;;;;3.47;1.45;;;;;;;;;;10478407;28;20043;-83
2023/09/20 14:19:15;;;;;;;3.33;1.42;;;;;;;;;;10471765;28;20089;-83
2023/09/20 14:24:16;;;;;;;6.50;1.50;;;;;;;;;;10484930;28;20105;-84
2023/09/20 14:29:17;;;;;;;2.17;1.20;;;;;;;;;;10492278;28;20032;-85
2023/09/20 14:34:21;;;;;;;3.65;1.60;;;;;;;;;;10477908;28;20036;-85
2023/09/20 14:39:22;;;;;;;2.78;1.30;;;;;;;;;;10479274;28;20036;-85
2023/09/20 14:44:24;;;;;;;2.55;1.40;;;;;;;;;;10467550;28;20046;-85
2023/09/20 14:49:25;;;;;;;1.95;1.20;;;;;;;;;;10503347;28;20032;-84
2023/09/20 14:54:26;;;;;;;1.35;1.02;;;;;;;;;;10490918;28;20060;-86
2023/09/20 14:59:27;;;;;;;2.30;1.35;;;;;;;;;;10486699;28;20021;-87
2023/09/20 15:04:31;;;;;;;2.15;1.15;;;;;;;;;;10473718;28;20063;-84
2023/09/20 15:09:32;;;;;;;3.17;1.58;;;;;;;;;;10491589;28;20869;-85
2023/09/20 15:14:35;;;;;;;5.25;1.35;;;;;;;;;;10490726;28;20028;-85
2023/09/20 15:19:36;;;;;;;2.47;1.33;;;;;;;;;;10491139;28;20021;-87
2023/09/20 15:24:38;;;;;;;2.65;1.13;;;;;;;;;;10490084;28;20033;-83
2023/09/20 15:29:39;;;;;;;2.88;1.13;;;;;;;;;;10489893;28;20036;-85
2023/09/20 15:34:40;;;;;;;1.80;1.20;;;;;;;;;;10472570;28;20502;-87
2023/09/20 15:39:41;;;;;;;8.60;3.03;;;;;;;;;;10470945;28;20498;-85
2023/09/20 15:44:47;;;;;;;25.55;13.55;;;;;;;;;;10488520;28;20409;-86
2023/09/20 15:49:49;;;;;;;15.80;8.77;;;;;;;;;;10476480;28;20468;-85
2023/09/20 15:54:50;;;;;;;3.60;3.05;;;;;;;;;;10488970;28;20028;-89
2023/09/20 15:59:51;;;;;;;10.35;5.93;;;;;;;;;;10488287;28;20039;-87
2023/09/20 16:04:52;;;;;;;92.55;54.40;;;;;;;;;;10487923;28;20044;-89
2023/09/20 16:09:53;;;;;;;25.70;16.10;;;;;;;;;;10488489;28;20020;-85
2023/09/20 16:14:54;;;;;;;17.80;8.98;;;;;;;;;;10488934;28;20443;-85
2023/09/20 16:19:55;;;;;;;8.02;4.80;;;;;;;;;;10471481;28;20054;-85
2023/09/20 16:24:56;;;;;;;8.13;5.13;;;;;;;;;;10488126;28;20654;-88
2023/09/20 16:29:57;;;;;;;4.38;2.90;;;;;;;;;;10469120;28;20563;-87
2023/09/20 16:34:58;;;;;;;8.23;4.85;;;;;;;;;;10487719;28;20043;-85
2023/09/20 16:40:00;;;;;;;3.05;1.67;;;;;;;;;;10487576;28;20037;-86
2023/09/20 16:45:01;;;;;;;3.50;2.22;;;;;;;;;;10470056;28;20044;-84
2023/09/20 16:50:02;;;;;;;4.65;3.22;;;;;;;;;;10478092;28;20136;-84
2023/09/20 16:55:04;;;;;;;8.10;5.38;;;;;;;;;;10487175;28;20078;-84
2023/09/20 17:00:11;;;;;;;8.63;5.65;;;;;;;;;;10494524;28;20029;-86
2023/09/20 17:05:14;;;;;;;6.15;3.90;;;;;;;;;;10488918;28;20416;-86
2023/09/20 17:10:16;;;;;;;4.95;3.40;;;;;;;;;;10487340;28;20031;-86
2023/09/20 17:15:18;;;;;;;5.93;3.42;;;;;;;;;;10484040;28;20036;-85
2023/09/20 17:20:19;;;;;;;7.03;4.10;;;;;;;;;;10459664;28;20660;-85
2023/09/20 17:25:20;;;;;;;8.25;4.40;;;;;;;;;;10487331;28;20396;-85
2023/09/20 17:30:21;;;;;;;8.85;4.05;;;;;;;;;;10485455;28;20027;-85
2023/09/20 17:35:23;;;;;;;6.72;2.90;;;;;;;;;;10469991;28;20033;-88
2023/09/20 17:40:26;;;;;;;6.90;2.92;;;;;;;;;;10468715;28;20028;-84
2023/09/20 17:45:27;;;;;;;9.00;3.70;;;;;;;;;;10474767;28;20029;-85
2023/09/20 17:50:29;;;;;;;8.90;3.80;;;;;;;;;;10456947;28;20777;-85
2023/09/20 17:55:30;;;;;;;10.13;4.68;;;;;;;;;;10481919;28;20025;-86
2023/09/20 18:00:32;;;;;;;8.27;3.42;;;;;;;;;;10484122;28;20067;-87
2023/09/20 18:05:33;;;;;;;6.32;3.38;;;;;;;;;;10450729;28;20095;-85
2023/09/20 18:10:34;;;;;;;5.75;3.30;;;;;;;;;;10460743;28;20033;-85
2023/09/20 18:15:35;;;;;;;6.88;3.40;;;;;;;;;;10489075;28;20031;-85
2023/09/20 18:20:39;;;;;;;7.80;3.42;;;;;;;;;;10485097;28;20395;-87
2023/09/20 18:25:41;;;;;;;7.65;3.95;;;;;;;;;;10470338;28;20625;-85
2023/09/20 18:30:42;;;;;;;10.00;5.03;;;;;;;;;;10482992;28;20502;-85
2023/09/20 18:35:44;;;;;;;11.18;5.47;;;;;;;;;;10484650;28;20032;-86
2023/09/20 18:40:45;;;;;;;9.40;3.85;;;;;;;;;;10493818;28;20603;-85
2023/09/20 18:45:46;;;;;;;8.40;3.85;;;;;;;;;;10489470;28;20064;-86
2023/09/20 18:50:49;;;;;;;6.03;3.50;;;;;;;;;;10485306;28;20058;-86
2023/09/20 18:55:55;;;;;;;6.47;3.92;;;;;;;;;;10483643;28;20025;-86
2023/09/20 19:00:56;;;;;;;11.73;6.63;;;;;;;;;;10494412;28;20029;-88
2023/09/20 19:05:59;;;;;;;11.52;6.28;;;;;;;;;;10483946;28;20040;-86
2023/09/20 19:11:00;;;;;;;12.82;7.97;;;;;;;;;;10465101;28;20421;-86
2023/09/20 19:16:02;;;;;;;16.48;9.95;;;;;;;;;;10489576;28;20060;-85
2023/09/20 19:21:06;;;;;;;18.25;9.63;;;;;;;;;;10470005;28;20932;-85
2023/09/20 19:26:07;;;;;;;8.48;5.68;;;;;;;;;;10487800;28;20036;-86
2023/09/20 19:31:12;;;;;;;9.30;6.07;;;;;;;;;;10472276;28;20089;-86
2023/09/20 19:36:13;;;;;;;13.23;6.90;;;;;;;;;;10489527;28;20045;-85
2023/09/20 19:41:14;;;;;;;10.20;5.90;;;;;;;;;;10490294;28;20970;-85
2023/09/20 19:46:16;;;;;;;13.18;7.22;;;;;;;;;;10489435;28;20048;-85
2023/09/20 19:51:21;;;;;;;9.52;6.15;;;;;;;;;;10489701;28;20100;-85
2023/09/20 19:56:30;;;;;;;8.95;6.20;;;;;;;;;;10490758;28;20362;-87
2023/09/20 20:01:31;;;;;;;18.20;11.13;;;;;;;;;;10470520;28;20091;-88
2023/09/20 20:06:32;;;;;;;23.50;12.65;;;;;;;;;;10488863;28;20499;-86
2023/09/20 20:11:33;;;;;;;21.90;11.25;;;;;;;;;;10489227;28;20037;-87
2023/09/20 20:16:37;;;;;;;17.55;7.95;;;;;;;;;;10488333;28;20387;-85
2023/09/20 20:21:38;;;;;;;11.00;6.43;;;;;;;;;;10469055;28;20052;-87
2023/09/20 20:26:39;;;;;;;11.05;6.72;;;;;;;;;;10488418;28;20043;-85
2023/09/20 20:31:43;;;;;;;10.77;5.88;;;;;;;;;;10469705;28;20086;-86
2023/09/20 20:36:45;;;;;;;10.45;6.28;;;;;;;;;;10487783;28;20033;-86
2023/09/20 20:41:47;;;;;;;14.23;8.52;;;;;;;;;;10470233;28;20047;-85
2023/09/20 20:46:48;;;;;;;15.27;8.23;;;;;;;;;;10487225;28;20040;-85
2023/09/20 20:51:50;;;;;;;16.98;7.97;;;;;;;;;;10487525;28;20029;-88
2023/09/20 20:56:53;;;;;;;13.23;8.25;;;;;;;;;;10483474;28;20392;-85
2023/09/20 21:01:54;;;;;;;11.48;6.93;;;;;;;;;;10468893;28;20193;-85
2023/09/20 21:06:56;;;;;;;13.45;6.90;;;;;;;;;;10467002;28;20449;-86
2023/09/20 21:11:57;;;;;;;8.65;6.20;;;;;;;;;;10486661;28;20103;-87
2023/09/20 21:16:58;;;;;;;10.65;6.38;;;;;;;;;;10485838;28;20040;-86
2023/09/20 21:22:00;;;;;;;12.25;5.95;;;;;;;;;;10467954;28;20590;-86
2023/09/20 21:27:01;;;;;;;10.30;6.00;;;;;;;;;;10477353;28;20040;-87
2023/09/20 21:32:02;;;;;;;9.57;5.18;;;;;;;;;;10484654;28;20028;-85
2023/09/20 21:37:03;;;;;;;8.30;5.22;;;;;;;;;;10466815;28;20040;-86
2023/09/20 21:42:04;;;;;;;10.45;5.20;;;;;;;;;;10485539;28;20395;-85
2023/09/20 21:47:05;;;;;;;10.70;5.70;;;;;;;;;;10463827;28;20037;-85
2023/09/20 21:52:06;;;;;;;8.27;5.10;;;;;;;;;;10466278;28;20028;-87
2023/09/20 21:57:07;;;;;;;8.18;5.05;;;;;;;;;;10477625;28;20028;-88
2023/09/20 22:02:08;;;;;;;7.05;4.90;;;;;;;;;;10466802;28;20045;-86
2023/09/20 22:07:10;;;;;;;8.35;4.35;;;;;;;;;;10484269;28;20036;-85
2023/09/20 22:12:11;;;;;;;8.75;4.45;;;;;;;;;;10484589;28;20024;-86
2023/09/20 22:17:12;;;;;;;6.10;4.18;;;;;;;;;;10483638;28;20082;-86
2023/09/20 22:22:13;;;;;;;9.00;4.60;;;;;;;;;;10484716;28;20838;-86
2023/09/20 22:27:14;;;;;;;8.98;4.93;;;;;;;;;;10484868;28;20047;-86
2023/09/20 22:32:15;;;;;;;5.88;4.70;;;;;;;;;;10466034;28;20062;-86
2023/09/20 22:37:17;;;;;;;7.03;4.60;;;;;;;;;;10465953;28;20039;-85
2023/09/20 22:42:18;;;;;;;8.38;4.55;;;;;;;;;;10466213;28;20043;-87
2023/09/20 22:47:19;;;;;;;9.40;4.40;;;;;;;;;;10486246;28;20054;-86
2023/09/20 22:52:22;;;;;;;5.95;4.13;;;;;;;;;;10474186;28;20384;-85
2023/09/20 22:57:24;;;;;;;7.63;4.72;;;;;;;;;;10492294;28;20104;-86
2023/09/20 23:02:25;;;;;;;9.52;5.38;;;;;;;;;;10491388;28;20384;-86
2023/09/20 23:07:29;;;;;;;9.98;5.50;;;;;;;;;;10472447;28;20086;-87
2023/09/20 23:12:30;;;;;;;9.82;5.05;;;;;;;;;;10490983;28;20025;-86
2023/09/20 23:17:31;;;;;;;9.88;5.38;;;;;;;;;;10491453;28;20034;-87
2023/09/20 23:22:34;;;;;;;7.65;4.85;;;;;;;;;;10491045;28;20336;-88
2023/09/20 23:27:37;;;;;;;8.95;5.47;;;;;;;;;;10478312;28;20131;-86
2023/09/20 23:32:38;;;;;;;8.32;4.88;;;;;;;;;;10471931;28;20099;-86
2023/09/20 23:37:39;;;;;;;7.57;4.53;;;;;;;;;;10471916;28;20097;-87
2023/09/20 23:42:42;;;;;;;7.97;5.15;;;;;;;;;;10490814;28;20378;-87
2023/09/20 23:47:43;;;;;;;7.25;5.20;;;;;;;;;;10472049;28;20040;-87
2023/09/20 23:52:44;;;;;;;9.25;4.82;;;;;;;;;;10489219;28;20052;-86
2023/09/20 23:57:46;;;;;;;9.90;5.13;;;;;;;;;;10470910;28;20127;-87
